sensor_id;sensor_type;location;lat;lon;timestamp;P1;durP1;ratioP1;P2;durP2;ratioP2
26822;SDS011;14852;51.910;8.878;2024-01-30T00:02:24;13.13;;;10.30;;
26822;SDS011;14852;51.910;8.878;2024-01-30T00:04:50;13.00;;;10.82;;
26822;SDS011;14852;51.910;8.878;2024-01-30T00:07:16;13.13;;;10.45;;
26822;SDS011;14852;51.910;8.878;2024-01-30T00:09:42;15.82;;;11.23;;
26822;SDS011;14852;51.910;8.878;2024-01-30T00:12:07;16.45;;;11.25;;
26822;SDS011;14852;51.910;8.878;2024-01-30T00:14:33;16.75;;;10.85;;
26822;SDS011;14852;51.910;8.878;2024-01-30T00:16:59;16.33;;;10.75;;
26822;SDS011;14852;51.910;8.878;2024-01-30T00:19:25;17.30;;;10.00;;
26822;SDS011;14852;51.910;8.878;2024-01-30T00:21:50;20.00;;;11.38;;
26822;SDS011;14852;51.910;8.878;2024-01-30T00:24:17;13.40;;;10.10;;
26822;SDS011;14852;51.910;8.878;2024-01-30T00:26:42;13.85;;;10.23;;
26822;SDS011;14852;51.910;8.878;2024-01-30T00:29:08;12.85;;;10.43;;
26822;SDS011;14852;51.910;8.878;2024-01-30T00:31:34;13.52;;;10.25;;
26822;SDS011;14852;51.910;8.878;2024-01-30T00:34:00;13.48;;;10.45;;
26822;SDS011;14852;51.910;8.878;2024-01-30T00:36:26;12.93;;;10.40;;
26822;SDS011;14852;51.910;8.878;2024-01-30T00:38:54;12.15;;;9.75;;
26822;SDS011;14852;51.910;8.878;2024-01-30T00:41:20;14.57;;;9.25;;
26822;SDS011;14852;51.910;8.878;2024-01-30T00:43:46;11.55;;;9.25;;
26822;SDS011;14852;51.910;8.878;2024-01-30T00:46:12;14.40;;;10.48;;
26822;SDS011;14852;51.910;8.878;2024-01-30T00:48:37;13.43;;;9.90;;
26822;SDS011;14852;51.910;8.878;2024-01-30T00:51:03;13.18;;;10.65;;
26822;SDS011;14852;51.910;8.878;2024-01-30T00:53:29;14.80;;;10.20;;
26822;SDS011;14852;51.910;8.878;2024-01-30T00:55:55;11.05;;;9.32;;
26822;SDS011;14852;51.910;8.878;2024-01-30T00:58:20;13.55;;;10.07;;
26822;SDS011;14852;51.910;8.878;2024-01-30T01:00:46;13.43;;;9.05;;
26822;SDS011;14852;51.910;8.878;2024-01-30T01:03:12;16.13;;;11.48;;
26822;SDS011;14852;51.910;8.878;2024-01-30T01:05:39;12.30;;;8.35;;
26822;SDS011;14852;51.910;8.878;2024-01-30T01:08:04;17.48;;;10.70;;
26822;SDS011;14852;51.910;8.878;2024-01-30T01:10:30;15.35;;;10.43;;
26822;SDS011;14852;51.910;8.878;2024-01-30T01:12:56;12.93;;;10.27;;
26822;SDS011;14852;51.910;8.878;2024-01-30T01:15:22;13.40;;;9.63;;
26822;SDS011;14852;51.910;8.878;2024-01-30T01:17:48;14.90;;;9.55;;
26822;SDS011;14852;51.910;8.878;2024-01-30T01:20:14;12.98;;;9.63;;
26822;SDS011;14852;51.910;8.878;2024-01-30T01:22:40;11.75;;;9.80;;
26822;SDS011;14852;51.910;8.878;2024-01-30T01:25:06;15.30;;;10.63;;
26822;SDS011;14852;51.910;8.878;2024-01-30T01:27:33;14.10;;;9.40;;
26822;SDS011;14852;51.910;8.878;2024-01-30T01:29:59;12.18;;;9.05;;
26822;SDS011;14852;51.910;8.878;2024-01-30T01:32:26;14.35;;;9.32;;
26822;SDS011;14852;51.910;8.878;2024-01-30T01:34:51;11.40;;;8.63;;
26822;SDS011;14852;51.910;8.878;2024-01-30T01:37:17;13.32;;;9.88;;
26822;SDS011;14852;51.910;8.878;2024-01-30T01:39:43;12.90;;;10.40;;
26822;SDS011;14852;51.910;8.878;2024-01-30T01:42:09;15.52;;;9.30;;
26822;SDS011;14852;51.910;8.878;2024-01-30T01:44:35;14.25;;;10.13;;
26822;SDS011;14852;51.910;8.878;2024-01-30T01:47:00;14.57;;;10.35;;
26822;SDS011;14852;51.910;8.878;2024-01-30T01:49:27;13.80;;;10.40;;
26822;SDS011;14852;51.910;8.878;2024-01-30T01:51:54;14.20;;;9.98;;
26822;SDS011;14852;51.910;8.878;2024-01-30T01:54:25;16.15;;;11.90;;
26822;SDS011;14852;51.910;8.878;2024-01-30T01:56:52;15.40;;;11.02;;
26822;SDS011;14852;51.910;8.878;2024-01-30T01:59:18;13.82;;;10.52;;
26822;SDS011;14852;51.910;8.878;2024-01-30T02:01:45;14.40;;;11.02;;
26822;SDS011;14852;51.910;8.878;2024-01-30T02:04:14;15.55;;;11.43;;
26822;SDS011;14852;51.910;8.878;2024-01-30T02:06:41;13.90;;;11.18;;
26822;SDS011;14852;51.910;8.878;2024-01-30T02:09:08;15.02;;;11.73;;
26822;SDS011;14852;51.910;8.878;2024-01-30T02:11:34;15.85;;;10.43;;
26822;SDS011;14852;51.910;8.878;2024-01-30T02:14:03;15.07;;;10.80;;
26822;SDS011;14852;51.910;8.878;2024-01-30T02:16:30;15.00;;;11.27;;
26822;SDS011;14852;51.910;8.878;2024-01-30T02:18:56;17.98;;;11.85;;
26822;SDS011;14852;51.910;8.878;2024-01-30T02:21:22;15.23;;;11.02;;
26822;SDS011;14852;51.910;8.878;2024-01-30T02:23:48;17.90;;;12.00;;
26822;SDS011;14852;51.910;8.878;2024-01-30T02:26:14;13.82;;;10.27;;
26822;SDS011;14852;51.910;8.878;2024-01-30T02:28:40;13.90;;;10.73;;
26822;SDS011;14852;51.910;8.878;2024-01-30T02:31:06;15.10;;;11.13;;
26822;SDS011;14852;51.910;8.878;2024-01-30T02:33:32;13.57;;;10.70;;
26822;SDS011;14852;51.910;8.878;2024-01-30T02:35:58;14.95;;;9.98;;
26822;SDS011;14852;51.910;8.878;2024-01-30T02:38:24;14.60;;;11.75;;
26822;SDS011;14852;51.910;8.878;2024-01-30T02:40:51;14.60;;;11.35;;
26822;SDS011;14852;51.910;8.878;2024-01-30T02:43:17;17.30;;;11.45;;
26822;SDS011;14852;51.910;8.878;2024-01-30T02:45:45;14.18;;;11.63;;
26822;SDS011;14852;51.910;8.878;2024-01-30T02:48:11;14.73;;;11.55;;
26822;SDS011;14852;51.910;8.878;2024-01-30T02:50:37;17.98;;;13.15;;
26822;SDS011;14852;51.910;8.878;2024-01-30T02:53:03;18.60;;;12.70;;
26822;SDS011;14852;51.910;8.878;2024-01-30T02:55:28;17.50;;;12.10;;
26822;SDS011;14852;51.910;8.878;2024-01-30T02:57:54;18.70;;;11.43;;
26822;SDS011;14852;51.910;8.878;2024-01-30T03:00:20;12.90;;;11.27;;
26822;SDS011;14852;51.910;8.878;2024-01-30T03:02:46;18.20;;;12.95;;
26822;SDS011;14852;51.910;8.878;2024-01-30T03:05:12;15.10;;;11.38;;
26822;SDS011;14852;51.910;8.878;2024-01-30T03:07:37;14.63;;;10.88;;
26822;SDS011;14852;51.910;8.878;2024-01-30T03:10:04;17.35;;;11.65;;
26822;SDS011;14852;51.910;8.878;2024-01-30T03:12:31;14.73;;;10.85;;
26822;SDS011;14852;51.910;8.878;2024-01-30T03:14:57;15.05;;;11.52;;
26822;SDS011;14852;51.910;8.878;2024-01-30T03:17:23;13.80;;;11.50;;
26822;SDS011;14852;51.910;8.878;2024-01-30T03:19:49;19.60;;;14.25;;
26822;SDS011;14852;51.910;8.878;2024-01-30T03:22:15;17.95;;;11.68;;
26822;SDS011;14852;51.910;8.878;2024-01-30T03:24:41;17.00;;;12.32;;
26822;SDS011;14852;51.910;8.878;2024-01-30T03:27:06;14.65;;;12.10;;
26822;SDS011;14852;51.910;8.878;2024-01-30T03:29:33;15.65;;;11.95;;
26822;SDS011;14852;51.910;8.878;2024-01-30T03:31:59;15.88;;;11.20;;
26822;SDS011;14852;51.910;8.878;2024-01-30T03:34:24;14.82;;;11.63;;
26822;SDS011;14852;51.910;8.878;2024-01-30T03:36:50;18.92;;;12.35;;
26822;SDS011;14852;51.910;8.878;2024-01-30T03:39:16;17.25;;;12.70;;
26822;SDS011;14852;51.910;8.878;2024-01-30T03:41:42;17.50;;;13.00;;
26822;SDS011;14852;51.910;8.878;2024-01-30T03:44:09;13.55;;;11.20;;
26822;SDS011;14852;51.910;8.878;2024-01-30T03:46:35;16.70;;;12.90;;
26822;SDS011;14852;51.910;8.878;2024-01-30T03:49:01;13.93;;;11.98;;
26822;SDS011;14852;51.910;8.878;2024-01-30T03:51:27;17.73;;;12.73;;
26822;SDS011;14852;51.910;8.878;2024-01-30T03:53:53;17.10;;;12.18;;
26822;SDS011;14852;51.910;8.878;2024-01-30T03:56:18;16.17;;;11.95;;
26822;SDS011;14852;51.910;8.878;2024-01-30T03:58:44;15.75;;;13.18;;
26822;SDS011;14852;51.910;8.878;2024-01-30T04:01:16;14.30;;;10.85;;
26822;SDS011;14852;51.910;8.878;2024-01-30T04:03:42;15.30;;;11.30;;
26822;SDS011;14852;51.910;8.878;2024-01-30T04:06:09;15.48;;;11.30;;
26822;SDS011;14852;51.910;8.878;2024-01-30T04:08:35;15.93;;;11.55;;
26822;SDS011;14852;51.910;8.878;2024-01-30T04:11:05;19.30;;;11.98;;
26822;SDS011;14852;51.910;8.878;2024-01-30T04:13:31;17.75;;;12.93;;
26822;SDS011;14852;51.910;8.878;2024-01-30T04:15:59;19.45;;;14.15;;
26822;SDS011;14852;51.910;8.878;2024-01-30T04:18:28;21.45;;;14.50;;
26822;SDS011;14852;51.910;8.878;2024-01-30T04:20:55;17.80;;;15.10;;
26822;SDS011;14852;51.910;8.878;2024-01-30T04:23:20;23.13;;;14.98;;
26822;SDS011;14852;51.910;8.878;2024-01-30T04:25:46;21.80;;;16.13;;
26822;SDS011;14852;51.910;8.878;2024-01-30T04:28:12;17.15;;;15.32;;
26822;SDS011;14852;51.910;8.878;2024-01-30T04:30:38;22.35;;;15.25;;
26822;SDS011;14852;51.910;8.878;2024-01-30T04:33:04;18.40;;;13.77;;
26822;SDS011;14852;51.910;8.878;2024-01-30T04:35:30;27.77;;;17.02;;
26822;SDS011;14852;51.910;8.878;2024-01-30T04:37:55;21.30;;;15.98;;
26822;SDS011;14852;51.910;8.878;2024-01-30T04:40:21;17.20;;;15.00;;
26822;SDS011;14852;51.910;8.878;2024-01-30T04:42:47;21.77;;;13.98;;
26822;SDS011;14852;51.910;8.878;2024-01-30T04:45:13;17.65;;;13.63;;
26822;SDS011;14852;51.910;8.878;2024-01-30T04:47:39;15.18;;;12.48;;
26822;SDS011;14852;51.910;8.878;2024-01-30T04:50:08;21.23;;;13.43;;
26822;SDS011;14852;51.910;8.878;2024-01-30T04:52:34;18.05;;;13.38;;
26822;SDS011;14852;51.910;8.878;2024-01-30T04:55:00;19.30;;;14.90;;
26822;SDS011;14852;51.910;8.878;2024-01-30T04:57:26;17.13;;;14.38;;
26822;SDS011;14852;51.910;8.878;2024-01-30T04:59:52;18.48;;;13.85;;
26822;SDS011;14852;51.910;8.878;2024-01-30T05:02:18;18.08;;;14.80;;
26822;SDS011;14852;51.910;8.878;2024-01-30T05:04:44;20.88;;;14.57;;
26822;SDS011;14852;51.910;8.878;2024-01-30T05:07:09;20.20;;;15.50;;
26822;SDS011;14852;51.910;8.878;2024-01-30T05:09:35;18.83;;;13.80;;
26822;SDS011;14852;51.910;8.878;2024-01-30T05:12:01;21.92;;;14.07;;
26822;SDS011;14852;51.910;8.878;2024-01-30T05:14:27;17.33;;;14.00;;
26822;SDS011;14852;51.910;8.878;2024-01-30T05:16:53;22.30;;;15.32;;
26822;SDS011;14852;51.910;8.878;2024-01-30T05:19:19;21.75;;;15.07;;
26822;SDS011;14852;51.910;8.878;2024-01-30T05:21:46;18.02;;;14.88;;
26822;SDS011;14852;51.910;8.878;2024-01-30T05:24:12;21.55;;;15.88;;
26822;SDS011;14852;51.910;8.878;2024-01-30T05:26:38;20.13;;;14.52;;
26822;SDS011;14852;51.910;8.878;2024-01-30T05:29:04;21.38;;;15.65;;
26822;SDS011;14852;51.910;8.878;2024-01-30T05:31:30;20.25;;;15.30;;
26822;SDS011;14852;51.910;8.878;2024-01-30T05:33:56;20.25;;;14.38;;
26822;SDS011;14852;51.910;8.878;2024-01-30T05:36:22;18.92;;;15.02;;
26822;SDS011;14852;51.910;8.878;2024-01-30T05:38:47;25.33;;;17.33;;
26822;SDS011;14852;51.910;8.878;2024-01-30T05:41:13;19.38;;;16.52;;
26822;SDS011;14852;51.910;8.878;2024-01-30T05:43:39;23.67;;;16.77;;
26822;SDS011;14852;51.910;8.878;2024-01-30T05:46:04;18.90;;;14.63;;
26822;SDS011;14852;51.910;8.878;2024-01-30T05:48:31;18.35;;;13.73;;
26822;SDS011;14852;51.910;8.878;2024-01-30T05:50:58;18.33;;;13.82;;
26822;SDS011;14852;51.910;8.878;2024-01-30T05:53:25;18.95;;;13.25;;
26822;SDS011;14852;51.910;8.878;2024-01-30T05:55:50;16.55;;;12.77;;
26822;SDS011;14852;51.910;8.878;2024-01-30T05:58:16;21.63;;;14.38;;
26822;SDS011;14852;51.910;8.878;2024-01-30T06:00:42;20.33;;;14.82;;
26822;SDS011;14852;51.910;8.878;2024-01-30T06:03:07;20.08;;;14.25;;
26822;SDS011;14852;51.910;8.878;2024-01-30T06:05:33;19.55;;;12.85;;
26822;SDS011;14852;51.910;8.878;2024-01-30T06:07:59;20.00;;;12.82;;
26822;SDS011;14852;51.910;8.878;2024-01-30T06:10:27;18.42;;;13.18;;
26822;SDS011;14852;51.910;8.878;2024-01-30T06:12:52;16.02;;;12.43;;
26822;SDS011;14852;51.910;8.878;2024-01-30T06:15:18;16.42;;;12.55;;
26822;SDS011;14852;51.910;8.878;2024-01-30T06:17:44;19.88;;;12.77;;
26822;SDS011;14852;51.910;8.878;2024-01-30T06:20:09;17.60;;;12.38;;
26822;SDS011;14852;51.910;8.878;2024-01-30T06:22:35;17.48;;;11.52;;
26822;SDS011;14852;51.910;8.878;2024-01-30T06:25:01;15.13;;;11.90;;
26822;SDS011;14852;51.910;8.878;2024-01-30T06:27:27;16.60;;;11.90;;
26822;SDS011;14852;51.910;8.878;2024-01-30T06:29:53;19.02;;;12.55;;
26822;SDS011;14852;51.910;8.878;2024-01-30T06:32:19;14.93;;;12.20;;
26822;SDS011;14852;51.910;8.878;2024-01-30T06:34:44;18.15;;;13.32;;
26822;SDS011;14852;51.910;8.878;2024-01-30T06:37:10;19.55;;;12.30;;
26822;SDS011;14852;51.910;8.878;2024-01-30T06:39:36;16.77;;;11.82;;
26822;SDS011;14852;51.910;8.878;2024-01-30T06:42:02;19.25;;;14.35;;
26822;SDS011;14852;51.910;8.878;2024-01-30T06:44:28;17.10;;;13.75;;
26822;SDS011;14852;51.910;8.878;2024-01-30T06:46:53;16.50;;;12.43;;
26822;SDS011;14852;51.910;8.878;2024-01-30T06:49:19;19.85;;;12.90;;
26822;SDS011;14852;51.910;8.878;2024-01-30T06:51:47;15.63;;;12.88;;
26822;SDS011;14852;51.910;8.878;2024-01-30T06:54:12;16.08;;;12.20;;
26822;SDS011;14852;51.910;8.878;2024-01-30T06:56:38;20.63;;;15.38;;
26822;SDS011;14852;51.910;8.878;2024-01-30T06:59:04;21.05;;;14.55;;
26822;SDS011;14852;51.910;8.878;2024-01-30T07:01:30;21.48;;;15.52;;
26822;SDS011;14852;51.910;8.878;2024-01-30T07:03:56;19.85;;;14.88;;
26822;SDS011;14852;51.910;8.878;2024-01-30T07:06:22;23.13;;;15.10;;
26822;SDS011;14852;51.910;8.878;2024-01-30T07:08:49;21.92;;;15.52;;
26822;SDS011;14852;51.910;8.878;2024-01-30T07:11:21;23.13;;;17.02;;
26822;SDS011;14852;51.910;8.878;2024-01-30T07:13:49;20.58;;;16.92;;
26822;SDS011;14852;51.910;8.878;2024-01-30T07:16:16;22.63;;;17.27;;
26822;SDS011;14852;51.910;8.878;2024-01-30T07:18:43;18.65;;;15.10;;
26822;SDS011;14852;51.910;8.878;2024-01-30T07:21:09;22.60;;;15.93;;
26822;SDS011;14852;51.910;8.878;2024-01-30T07:23:35;28.35;;;18.33;;
26822;SDS011;14852;51.910;8.878;2024-01-30T07:26:04;20.10;;;14.57;;
26822;SDS011;14852;51.910;8.878;2024-01-30T07:28:31;22.63;;;15.60;;
26822;SDS011;14852;51.910;8.878;2024-01-30T07:30:58;21.00;;;15.48;;
26822;SDS011;14852;51.910;8.878;2024-01-30T07:33:23;21.55;;;15.98;;
26822;SDS011;14852;51.910;8.878;2024-01-30T07:35:49;19.85;;;15.50;;
26822;SDS011;14852;51.910;8.878;2024-01-30T07:38:17;20.88;;;16.02;;
26822;SDS011;14852;51.910;8.878;2024-01-30T07:40:43;20.65;;;14.80;;
26822;SDS011;14852;51.910;8.878;2024-01-30T07:43:09;20.48;;;16.33;;
26822;SDS011;14852;51.910;8.878;2024-01-30T07:45:35;22.70;;;16.40;;
26822;SDS011;14852;51.910;8.878;2024-01-30T07:48:02;20.55;;;14.25;;
26822;SDS011;14852;51.910;8.878;2024-01-30T07:50:28;21.85;;;14.93;;
26822;SDS011;14852;51.910;8.878;2024-01-30T07:52:58;21.10;;;15.07;;
26822;SDS011;14852;51.910;8.878;2024-01-30T07:55:25;20.70;;;15.60;;
26822;SDS011;14852;51.910;8.878;2024-01-30T07:57:53;22.02;;;15.23;;
26822;SDS011;14852;51.910;8.878;2024-01-30T08:00:20;20.67;;;15.02;;
26822;SDS011;14852;51.910;8.878;2024-01-30T08:02:47;26.10;;;15.95;;
26822;SDS011;14852;51.910;8.878;2024-01-30T08:05:13;21.48;;;15.65;;
26822;SDS011;14852;51.910;8.878;2024-01-30T08:07:40;16.55;;;13.73;;
26822;SDS011;14852;51.910;8.878;2024-01-30T08:10:07;22.30;;;15.32;;
26822;SDS011;14852;51.910;8.878;2024-01-30T08:12:34;21.92;;;14.18;;
26822;SDS011;14852;51.910;8.878;2024-01-30T08:14:59;19.35;;;15.00;;
26822;SDS011;14852;51.910;8.878;2024-01-30T08:17:26;20.15;;;14.80;;
26822;SDS011;14852;51.910;8.878;2024-01-30T08:19:51;21.38;;;15.55;;
26822;SDS011;14852;51.910;8.878;2024-01-30T08:22:17;21.75;;;16.40;;
26822;SDS011;14852;51.910;8.878;2024-01-30T08:24:43;27.30;;;15.85;;
26822;SDS011;14852;51.910;8.878;2024-01-30T08:27:09;19.13;;;14.90;;
26822;SDS011;14852;51.910;8.878;2024-01-30T08:29:37;20.40;;;15.98;;
26822;SDS011;14852;51.910;8.878;2024-01-30T08:32:06;25.83;;;16.42;;
26822;SDS011;14852;51.910;8.878;2024-01-30T08:34:32;27.13;;;16.60;;
26822;SDS011;14852;51.910;8.878;2024-01-30T08:36:58;26.25;;;17.83;;
26822;SDS011;14852;51.910;8.878;2024-01-30T08:39:24;22.27;;;16.42;;
26822;SDS011;14852;51.910;8.878;2024-01-30T08:41:50;24.60;;;16.90;;
26822;SDS011;14852;51.910;8.878;2024-01-30T08:44:16;21.52;;;16.30;;
26822;SDS011;14852;51.910;8.878;2024-01-30T08:46:42;21.83;;;16.02;;
26822;SDS011;14852;51.910;8.878;2024-01-30T08:49:10;20.63;;;15.95;;
26822;SDS011;14852;51.910;8.878;2024-01-30T08:51:38;22.25;;;15.68;;
26822;SDS011;14852;51.910;8.878;2024-01-30T08:54:05;19.00;;;14.90;;
26822;SDS011;14852;51.910;8.878;2024-01-30T08:56:30;19.40;;;15.80;;
26822;SDS011;14852;51.910;8.878;2024-01-30T08:58:56;19.15;;;16.35;;
26822;SDS011;14852;51.910;8.878;2024-01-30T09:01:22;21.30;;;14.00;;
26822;SDS011;14852;51.910;8.878;2024-01-30T09:03:48;20.20;;;13.85;;
26822;SDS011;14852;51.910;8.878;2024-01-30T09:06:13;20.02;;;14.82;;
26822;SDS011;14852;51.910;8.878;2024-01-30T09:08:39;16.67;;;12.27;;
26822;SDS011;14852;51.910;8.878;2024-01-30T09:11:09;17.00;;;13.20;;
26822;SDS011;14852;51.910;8.878;2024-01-30T09:13:39;15.77;;;13.20;;
26822;SDS011;14852;51.910;8.878;2024-01-30T09:16:05;19.05;;;13.82;;
26822;SDS011;14852;51.910;8.878;2024-01-30T09:18:31;16.70;;;13.68;;
26822;SDS011;14852;51.910;8.878;2024-01-30T09:20:57;17.33;;;12.98;;
26822;SDS011;14852;51.910;8.878;2024-01-30T09:23:23;18.95;;;13.75;;
26822;SDS011;14852;51.910;8.878;2024-01-30T09:25:50;17.63;;;13.10;;
26822;SDS011;14852;51.910;8.878;2024-01-30T09:28:16;18.33;;;13.07;;
26822;SDS011;14852;51.910;8.878;2024-01-30T09:30:42;17.35;;;13.27;;
26822;SDS011;14852;51.910;8.878;2024-01-30T09:33:08;15.50;;;12.35;;
26822;SDS011;14852;51.910;8.878;2024-01-30T09:35:34;16.60;;;12.45;;
26822;SDS011;14852;51.910;8.878;2024-01-30T09:38:01;16.58;;;12.63;;
26822;SDS011;14852;51.910;8.878;2024-01-30T09:40:27;17.98;;;12.00;;
26822;SDS011;14852;51.910;8.878;2024-01-30T09:42:54;17.05;;;11.90;;
26822;SDS011;14852;51.910;8.878;2024-01-30T09:45:20;16.58;;;13.50;;
26822;SDS011;14852;51.910;8.878;2024-01-30T09:47:50;18.77;;;13.02;;
26822;SDS011;14852;51.910;8.878;2024-01-30T09:50:16;18.05;;;14.98;;
26822;SDS011;14852;51.910;8.878;2024-01-30T09:52:44;17.45;;;13.55;;
26822;SDS011;14852;51.910;8.878;2024-01-30T09:55:14;16.15;;;12.07;;
26822;SDS011;14852;51.910;8.878;2024-01-30T09:57:41;18.10;;;12.98;;
26822;SDS011;14852;51.910;8.878;2024-01-30T10:00:07;18.42;;;14.95;;
26822;SDS011;14852;51.910;8.878;2024-01-30T10:02:39;16.67;;;13.77;;
26822;SDS011;14852;51.910;8.878;2024-01-30T10:05:06;15.02;;;13.15;;
26822;SDS011;14852;51.910;8.878;2024-01-30T10:07:33;16.30;;;13.60;;
26822;SDS011;14852;51.910;8.878;2024-01-30T10:09:59;15.90;;;12.95;;
26822;SDS011;14852;51.910;8.878;2024-01-30T10:12:25;17.00;;;13.55;;
26822;SDS011;14852;51.910;8.878;2024-01-30T10:14:51;14.98;;;12.43;;
26822;SDS011;14852;51.910;8.878;2024-01-30T10:17:17;14.57;;;11.38;;
26822;SDS011;14852;51.910;8.878;2024-01-30T10:19:43;13.18;;;10.65;;
26822;SDS011;14852;51.910;8.878;2024-01-30T10:22:09;14.40;;;12.10;;
26822;SDS011;14852;51.910;8.878;2024-01-30T10:24:35;16.42;;;11.88;;
26822;SDS011;14852;51.910;8.878;2024-01-30T10:27:02;17.80;;;13.00;;
26822;SDS011;14852;51.910;8.878;2024-01-30T10:29:28;15.48;;;11.32;;
26822;SDS011;14852;51.910;8.878;2024-01-30T10:32:00;13.40;;;10.60;;
26822;SDS011;14852;51.910;8.878;2024-01-30T10:36:59;14.73;;;11.00;;
26822;SDS011;14852;51.910;8.878;2024-01-30T10:39:38;17.52;;;12.43;;
26822;SDS011;14852;51.910;8.878;2024-01-30T10:42:11;14.50;;;11.43;;
26822;SDS011;14852;51.910;8.878;2024-01-30T10:47:32;12.55;;;10.50;;
26822;SDS011;14852;51.910;8.878;2024-01-30T10:50:01;13.90;;;10.18;;
26822;SDS011;14852;51.910;8.878;2024-01-30T10:52:34;13.07;;;10.73;;
26822;SDS011;14852;51.910;8.878;2024-01-30T10:55:01;15.48;;;11.20;;
26822;SDS011;14852;51.910;8.878;2024-01-30T10:57:30;14.50;;;12.85;;
26822;SDS011;14852;51.910;8.878;2024-01-30T10:59:58;17.05;;;12.05;;
26822;SDS011;14852;51.910;8.878;2024-01-30T11:02:26;15.32;;;11.40;;
26822;SDS011;14852;51.910;8.878;2024-01-30T11:04:59;12.40;;;11.07;;
26822;SDS011;14852;51.910;8.878;2024-01-30T11:07:26;13.67;;;11.73;;
26822;SDS011;14852;51.910;8.878;2024-01-30T11:09:59;16.80;;;11.98;;
26822;SDS011;14852;51.910;8.878;2024-01-30T11:12:30;14.25;;;11.38;;
26822;SDS011;14852;51.910;8.878;2024-01-30T11:15:04;17.75;;;13.98;;
26822;SDS011;14852;51.910;8.878;2024-01-30T11:17:42;12.85;;;10.85;;
26822;SDS011;14852;51.910;8.878;2024-01-30T11:22:53;17.02;;;11.27;;
26822;SDS011;14852;51.910;8.878;2024-01-30T11:25:21;12.95;;;11.57;;
26822;SDS011;14852;51.910;8.878;2024-01-30T11:27:52;14.63;;;11.73;;
26822;SDS011;14852;51.910;8.878;2024-01-30T11:30:26;12.90;;;11.05;;
26822;SDS011;14852;51.910;8.878;2024-01-30T11:33:00;11.75;;;10.55;;
26822;SDS011;14852;51.910;8.878;2024-01-30T11:35:34;14.20;;;10.20;;
26822;SDS011;14852;51.910;8.878;2024-01-30T11:38:02;11.73;;;10.20;;
26822;SDS011;14852;51.910;8.878;2024-01-30T11:40:29;13.43;;;11.93;;
26822;SDS011;14852;51.910;8.878;2024-01-30T11:42:56;12.82;;;10.82;;
26822;SDS011;14852;51.910;8.878;2024-01-30T11:45:24;12.45;;;10.43;;
26822;SDS011;14852;51.910;8.878;2024-01-30T11:47:51;11.18;;;9.15;;
26822;SDS011;14852;51.910;8.878;2024-01-30T11:50:18;11.25;;;9.32;;
26822;SDS011;14852;51.910;8.878;2024-01-30T11:52:43;10.13;;;8.75;;
26822;SDS011;14852;51.910;8.878;2024-01-30T11:55:09;13.73;;;10.77;;
26822;SDS011;14852;51.910;8.878;2024-01-30T11:57:35;10.05;;;8.73;;
26822;SDS011;14852;51.910;8.878;2024-01-30T12:00:05;11.65;;;9.73;;
26822;SDS011;14852;51.910;8.878;2024-01-30T12:02:39;9.02;;;8.05;;
26822;SDS011;14852;51.910;8.878;2024-01-30T12:05:05;10.27;;;8.18;;
26822;SDS011;14852;51.910;8.878;2024-01-30T12:07:32;9.48;;;7.22;;
26822;SDS011;14852;51.910;8.878;2024-01-30T12:10:02;8.45;;;6.38;;
26822;SDS011;14852;51.910;8.878;2024-01-30T12:12:34;8.90;;;7.13;;
26822;SDS011;14852;51.910;8.878;2024-01-30T12:15:00;8.20;;;6.68;;
26822;SDS011;14852;51.910;8.878;2024-01-30T12:17:31;6.18;;;5.50;;
26822;SDS011;14852;51.910;8.878;2024-01-30T12:20:07;5.90;;;4.20;;
26822;SDS011;14852;51.910;8.878;2024-01-30T12:25:07;5.18;;;3.88;;
26822;SDS011;14852;51.910;8.878;2024-01-30T12:27:34;5.63;;;3.80;;
26822;SDS011;14852;51.910;8.878;2024-01-30T12:30:05;7.60;;;4.97;;
26822;SDS011;14852;51.910;8.878;2024-01-30T12:32:34;12.35;;;7.85;;
26822;SDS011;14852;51.910;8.878;2024-01-30T12:35:15;8.55;;;5.07;;
26822;SDS011;14852;51.910;8.878;2024-01-30T12:37:43;13.95;;;4.68;;
26822;SDS011;14852;51.910;8.878;2024-01-30T12:40:10;7.40;;;5.40;;
26822;SDS011;14852;51.910;8.878;2024-01-30T12:42:39;12.98;;;5.13;;
26822;SDS011;14852;51.910;8.878;2024-01-30T12:45:08;8.80;;;5.22;;
26822;SDS011;14852;51.910;8.878;2024-01-30T12:47:34;5.00;;;4.07;;
26822;SDS011;14852;51.910;8.878;2024-01-30T12:50:00;5.80;;;4.13;;
26822;SDS011;14852;51.910;8.878;2024-01-30T12:52:26;10.70;;;6.25;;
26822;SDS011;14852;51.910;8.878;2024-01-30T12:54:52;12.07;;;5.15;;
26822;SDS011;14852;51.910;8.878;2024-01-30T12:57:18;8.30;;;6.07;;
26822;SDS011;14852;51.910;8.878;2024-01-30T12:59:44;8.48;;;6.43;;
26822;SDS011;14852;51.910;8.878;2024-01-30T13:02:11;9.80;;;4.95;;
26822;SDS011;14852;51.910;8.878;2024-01-30T13:04:38;5.88;;;5.20;;
26822;SDS011;14852;51.910;8.878;2024-01-30T13:07:05;7.93;;;4.80;;
26822;SDS011;14852;51.910;8.878;2024-01-30T13:09:30;6.68;;;4.97;;
26822;SDS011;14852;51.910;8.878;2024-01-30T13:11:57;6.22;;;4.10;;
26822;SDS011;14852;51.910;8.878;2024-01-30T13:14:24;6.95;;;4.50;;
26822;SDS011;14852;51.910;8.878;2024-01-30T13:16:50;6.13;;;4.78;;
26822;SDS011;14852;51.910;8.878;2024-01-30T13:19:16;6.50;;;4.47;;
26822;SDS011;14852;51.910;8.878;2024-01-30T13:21:42;6.78;;;4.63;;
26822;SDS011;14852;51.910;8.878;2024-01-30T13:24:08;7.80;;;5.03;;
26822;SDS011;14852;51.910;8.878;2024-01-30T13:26:34;7.43;;;4.85;;
26822;SDS011;14852;51.910;8.878;2024-01-30T13:29:00;5.43;;;3.92;;
26822;SDS011;14852;51.910;8.878;2024-01-30T13:31:26;8.75;;;4.75;;
26822;SDS011;14852;51.910;8.878;2024-01-30T13:33:53;6.75;;;4.97;;
26822;SDS011;14852;51.910;8.878;2024-01-30T13:36:19;6.65;;;4.53;;
26822;SDS011;14852;51.910;8.878;2024-01-30T13:38:46;7.95;;;5.10;;
26822;SDS011;14852;51.910;8.878;2024-01-30T13:41:12;8.20;;;5.22;;
26822;SDS011;14852;51.910;8.878;2024-01-30T13:43:38;7.05;;;4.85;;
26822;SDS011;14852;51.910;8.878;2024-01-30T13:46:04;6.50;;;4.57;;
26822;SDS011;14852;51.910;8.878;2024-01-30T13:48:31;7.85;;;5.88;;
26822;SDS011;14852;51.910;8.878;2024-01-30T13:50:56;10.25;;;5.40;;
26822;SDS011;14852;51.910;8.878;2024-01-30T13:53:22;9.48;;;4.43;;
26822;SDS011;14852;51.910;8.878;2024-01-30T13:55:48;7.85;;;5.18;;
26822;SDS011;14852;51.910;8.878;2024-01-30T13:58:14;7.68;;;5.20;;
26822;SDS011;14852;51.910;8.878;2024-01-30T14:00:40;12.15;;;4.97;;
26822;SDS011;14852;51.910;8.878;2024-01-30T14:03:06;8.32;;;5.00;;
26822;SDS011;14852;51.910;8.878;2024-01-30T14:05:32;6.60;;;4.53;;
26822;SDS011;14852;51.910;8.878;2024-01-30T14:07:58;6.15;;;4.45;;
26822;SDS011;14852;51.910;8.878;2024-01-30T14:10:25;6.20;;;4.30;;
26822;SDS011;14852;51.910;8.878;2024-01-30T14:12:50;7.97;;;4.90;;
26822;SDS011;14852;51.910;8.878;2024-01-30T14:15:16;6.45;;;5.20;;
26822;SDS011;14852;51.910;8.878;2024-01-30T14:17:46;8.43;;;5.38;;
26822;SDS011;14852;51.910;8.878;2024-01-30T14:20:13;8.10;;;5.18;;
26822;SDS011;14852;51.910;8.878;2024-01-30T14:22:41;6.15;;;4.78;;
26822;SDS011;14852;51.910;8.878;2024-01-30T14:25:08;8.43;;;5.10;;
26822;SDS011;14852;51.910;8.878;2024-01-30T14:27:34;6.38;;;4.55;;
26822;SDS011;14852;51.910;8.878;2024-01-30T14:30:00;5.43;;;4.13;;
26822;SDS011;14852;51.910;8.878;2024-01-30T14:32:28;5.30;;;4.63;;
26822;SDS011;14852;51.910;8.878;2024-01-30T14:34:53;5.35;;;4.55;;